Time;durP1;ratioP1;P1;durP2;ratioP2;P2;SDS_P1;SDS_P2;PMS_P1;PMS_P2;Temp;Humidity;BMP_temperature;BMP_pressure;BME280_temperature;BME280_humidity;BME280_pressure;Samples;Min_cycle;Max_cycle;Signal;HPM_P1;HPM_P2
2023/01/15 00:00:17;;;;;;;;;;;22.10;35.50;;;;;;483394;246;1662;-44
2023/01/15 00:02:18;;;;;;;;;;;22.20;35.40;;;;;;483358;246;2160;-44
2023/01/15 00:04:19;;;;;;;;;;;22.30;35.30;;;;;;483440;246;2521;-44
2023/01/15 00:06:20;;;;;;;;;;;22.40;35.20;;;;;;483375;246;2175;-44
2023/01/15 00:08:22;;;;;;;;;;;22.50;35.10;;;;;;483428;246;1671;-44
2023/01/15 00:10:23;;;;;;;;;;;22.50;35.00;;;;;;483551;246;2161;-44
2023/01/15 00:12:24;;;;;;;;;;;22.60;35.00;;;;;;483723;246;2247;-44
2023/01/15 00:14:26;;;;;;;;;;;22.60;34.90;;;;;;483655;246;2157;-44
2023/01/15 00:16:27;;;;;;;;;;;22.60;34.80;;;;;;483700;246;1888;-44
2023/01/15 00:18:28;;;;;;;;;;;22.60;34.70;;;;;;483897;246;2097;-44
2023/01/15 00:20:30;;;;;;;;;;;22.70;34.70;;;;;;483943;246;1828;-45
2023/01/15 00:22:31;;;;;;;;;;;22.70;34.70;;;;;;483902;246;1937;-44
2023/01/15 00:29:11;;;;;;;;;;;22.80;34.50;;;;;;483763;246;1904;-44
2023/01/15 00:31:13;;;;;;;;;;;22.80;34.40;;;;;;483774;246;2167;-44
2023/01/15 00:33:14;;;;;;;;;;;22.90;34.40;;;;;;483744;246;2168;-44
2023/01/15 00:35:15;;;;;;;;;;;22.90;34.40;;;;;;483890;246;1726;-44
2023/01/15 00:37:16;;;;;;;;;;;22.90;34.30;;;;;;483829;246;2331;-44
2023/01/15 00:39:18;;;;;;;;;;;23.00;34.30;;;;;;483650;246;1955;-44
2023/01/15 00:41:20;;;;;;;;;;;23.00;34.30;;;;;;483809;246;1838;-44
2023/01/15 00:43:21;;;;;;;;;;;23.00;34.30;;;;;;483610;246;2311;-44
2023/01/15 00:45:22;;;;;;;;;;;23.00;34.20;;;;;;483818;246;1796;-44
2023/01/15 00:47:24;;;;;;;;;;;23.10;34.20;;;;;;483562;246;2322;-44
2023/01/15 00:49:25;;;;;;;;;;;23.10;34.20;;;;;;483423;246;2039;-44
2023/01/15 00:51:26;;;;;;;;;;;23.10;34.20;;;;;;483321;246;2617;-43
2023/01/15 00:53:27;;;;;;;;;;;23.10;34.10;;;;;;483337;246;2204;-44
2023/01/15 00:55:29;;;;;;;;;;;23.10;34.10;;;;;;483333;246;2068;-44
2023/01/15 00:57:30;;;;;;;;;;;23.20;34.10;;;;;;483427;246;2047;-44
2023/01/15 00:59:31;;;;;;;;;;;23.20;34.10;;;;;;483402;246;1742;-44
2023/01/15 01:01:33;;;;;;;;;;;23.20;34.10;;;;;;483341;246;1846;-44
2023/01/15 01:03:34;;;;;;;;;;;23.20;34.00;;;;;;483404;246;1869;-44
2023/01/15 01:05:35;;;;;;;;;;;23.20;34.00;;;;;;483257;246;2091;-44
2023/01/15 01:07:37;;;;;;;;;;;23.20;34.00;;;;;;483364;246;1883;-44
2023/01/15 01:09:38;;;;;;;;;;;23.20;33.90;;;;;;483301;246;1959;-44
2023/01/15 01:11:39;;;;;;;;;;;23.30;34.00;;;;;;483408;246;1890;-43
2023/01/15 01:13:41;;;;;;;;;;;23.30;33.90;;;;;;483300;246;2172;-44
2023/01/15 01:15:42;;;;;;;;;;;23.30;33.90;;;;;;483391;246;1724;-44
2023/01/15 01:17:43;;;;;;;;;;;23.30;33.90;;;;;;483280;246;2135;-44
2023/01/15 01:19:45;;;;;;;;;;;23.30;33.90;;;;;;483389;246;1977;-44
2023/01/15 01:21:46;;;;;;;;;;;23.30;33.80;;;;;;483328;246;1886;-44
2023/01/15 01:23:47;;;;;;;;;;;23.40;33.90;;;;;;483293;246;1768;-44
2023/01/15 01:25:49;;;;;;;;;;;23.40;33.90;;;;;;483331;246;1611;-44
2023/01/15 01:27:50;;;;;;;;;;;23.40;33.90;;;;;;483315;246;1982;-44
2023/01/15 01:29:51;;;;;;;;;;;23.40;33.80;;;;;;483375;246;1968;-44
2023/01/15 01:31:53;;;;;;;;;;;23.40;33.80;;;;;;483280;246;2161;-44
2023/01/15 01:33:54;;;;;;;;;;;23.40;33.80;;;;;;483264;246;2228;-44
2023/01/15 01:35:55;;;;;;;;;;;23.40;33.70;;;;;;483297;246;1790;-44
2023/01/15 01:37:57;;;;;;;;;;;23.50;33.80;;;;;;483329;246;1630;-44
2023/01/15 01:39:58;;;;;;;;;;;23.40;33.70;;;;;;483326;246;1712;-44
2023/01/15 01:41:59;;;;;;;;;;;23.50;33.80;;;;;;483281;246;1875;-44
2023/01/15 01:44:01;;;;;;;;;;;23.50;33.80;;;;;;483309;246;1885;-44
2023/01/15 01:46:02;;;;;;;;;;;23.50;33.80;;;;;;483298;246;1940;-44
2023/01/15 01:48:03;;;;;;;;;;;23.50;33.80;;;;;;483310;246;1987;-44
2023/01/15 01:50:05;;;;;;;;;;;23.50;33.80;;;;;;483311;246;3441;-44
2023/01/15 01:52:06;;;;;;;;;;;23.50;33.80;;;;;;475350;250;2023;-44
2023/01/15 01:54:07;;;;;;;;;;;23.50;33.70;;;;;;475056;250;2192;-44
2023/01/15 01:56:09;;;;;;;;;;;23.50;33.70;;;;;;475313;250;2594;-43
2023/01/15 01:58:10;;;;;;;;;;;23.50;33.70;;;;;;475083;251;1830;-44
2023/01/15 02:00:12;;;;;;;;;;;23.50;33.80;;;;;;475094;250;2047;-44
2023/01/15 02:02:13;;;;;;;;;;;23.50;33.90;;;;;;475005;251;2909;-44
2023/01/15 02:04:14;;;;;;;;;;;23.30;34.10;;;;;;475106;251;2202;-44
2023/01/15 02:06:15;;;;;;;;;;;23.10;34.30;;;;;;475198;250;2276;-43
2023/01/15 02:08:16;;;;;;;;;;;22.90;34.60;;;;;;474934;251;1953;-44
2023/01/15 02:10:18;;;;;;;;;;;22.70;34.90;;;;;;475109;250;1590;-43
2023/01/15 02:12:19;;;;;;;;;;;22.70;35.20;;;;;;475095;250;1712;-44
2023/01/15 02:14:21;;;;;;;;;;;22.50;35.30;;;;;;475106;250;2118;-44
2023/01/15 02:16:22;;;;;;;;;;;22.50;35.50;;;;;;475184;250;1696;-44
2023/01/15 02:18:24;;;;;;;;;;;22.40;35.60;;;;;;475165;250;1983;-44
2023/01/15 02:20:27;;;;;;;;;;;22.40;35.70;;;;;;475211;250;1706;-44
2023/01/15 02:22:26;;;;;;;;;;;22.50;35.60;;;;;;474961;250;2290;-44
2023/01/15 02:24:28;;;;;;;;;;;22.60;35.40;;;;;;475068;251;1727;-44
2023/01/15 02:26:29;;;;;;;;;;;22.50;35.50;;;;;;475011;251;3640;-44
2023/01/15 02:28:30;;;;;;;;;;;22.40;35.60;;;;;;475200;250;2436;-44
2023/01/15 02:30:32;;;;;;;;;;;22.30;35.80;;;;;;475152;250;1725;-44
2023/01/15 02:32:33;;;;;;;;;;;22.20;35.90;;;;;;475202;250;2231;-43
2023/01/15 02:34:35;;;;;;;;;;;22.10;36.00;;;;;;475171;250;2045;-44
2023/01/15 02:36:35;;;;;;;;;;;22.10;36.10;;;;;;474846;251;2133;-44
2023/01/15 02:38:37;;;;;;;;;;;22.00;36.10;;;;;;475180;250;1661;-43
2023/01/15 02:40:38;;;;;;;;;;;22.00;36.20;;;;;;475100;250;1686;-44
2023/01/15 02:42:40;;;;;;;;;;;22.00;36.30;;;;;;475069;250;1754;-43
2023/01/15 02:44:41;;;;;;;;;;;22.00;36.30;;;;;;475240;250;1872;-43
2023/01/15 02:46:42;;;;;;;;;;;22.00;36.30;;;;;;474966;250;1658;-44
2023/01/15 02:48:43;;;;;;;;;;;22.00;36.40;;;;;;475148;250;2175;-43
2023/01/15 02:50:45;;;;;;;;;;;21.90;36.40;;;;;;475053;246;2367;-44
2023/01/15 02:52:46;;;;;;;;;;;21.90;36.40;;;;;;475026;250;2195;-42
2023/01/15 02:54:47;;;;;;;;;;;21.90;36.50;;;;;;475211;250;1683;-43
2023/01/15 02:56:49;;;;;;;;;;;21.90;36.50;;;;;;474948;250;1667;-44
2023/01/15 02:58:50;;;;;;;;;;;21.90;36.50;;;;;;475096;250;1900;-44
2023/01/15 03:00:52;;;;;;;;;;;21.80;36.50;;;;;;475008;251;1944;-44
2023/01/15 03:02:53;;;;;;;;;;;21.80;36.50;;;;;;474965;251;1697;-43
2023/01/15 03:04:54;;;;;;;;;;;21.80;36.60;;;;;;475107;250;1929;-44
2023/01/15 03:06:55;;;;;;;;;;;21.80;36.70;;;;;;474920;250;1690;-44
2023/01/15 03:08:57;;;;;;;;;;;21.70;36.60;;;;;;475035;250;1813;-44
2023/01/15 03:10:58;;;;;;;;;;;21.70;36.70;;;;;;474940;251;1921;-44
2023/01/15 03:13:03;;;;;;;;;;;21.70;36.80;;;;;;475077;250;2161;-44
2023/01/15 03:15:04;;;;;;;;;;;21.60;36.80;;;;;;475050;250;1710;-44
2023/01/15 03:17:06;;;;;;;;;;;21.60;36.80;;;;;;474854;246;1709;-43
2023/01/15 03:19:07;;;;;;;;;;;21.60;36.80;;;;;;474968;249;2151;-44
2023/01/15 03:21:08;;;;;;;;;;;21.60;36.80;;;;;;474961;250;1824;-43
2023/01/15 03:23:10;;;;;;;;;;;21.60;36.90;;;;;;475084;250;2287;-44
2023/01/15 03:25:11;;;;;;;;;;;21.60;36.90;;;;;;475086;250;1549;-44
2023/01/15 03:27:12;;;;;;;;;;;21.60;36.90;;;;;;474878;250;1614;-44
2023/01/15 03:29:14;;;;;;;;;;;21.60;36.90;;;;;;475059;251;1716;-44
2023/01/15 03:31:15;;;;;;;;;;;21.50;37.00;;;;;;474927;251;2086;-43
2023/01/15 03:33:16;;;;;;;;;;;21.50;37.00;;;;;;475197;250;2200;-43
2023/01/15 03:35:18;;;;;;;;;;;21.50;37.00;;;;;;475090;250;1752;-44
2023/01/15 03:37:19;;;;;;;;;;;21.50;37.00;;;;;;474912;251;1947;-44
2023/01/15 03:39:20;;;;;;;;;;;21.50;37.00;;;;;;475202;247;2432;-44
2023/01/15 03:41:22;;;;;;;;;;;21.50;37.00;;;;;;474876;251;2142;-44
2023/01/15 03:43:41;;;;;;;;;;;21.50;37.00;;;;;;474997;250;1778;-43
2023/01/15 03:45:43;;;;;;;;;;;21.50;37.00;;;;;;475087;250;2111;-44
2023/01/15 03:47:44;;;;;;;;;;;21.50;36.90;;;;;;474952;250;1773;-43
2023/01/15 03:49:45;;;;;;;;;;;21.50;36.90;;;;;;475191;250;1683;-44
2023/01/15 03:51:47;;;;;;;;;;;21.50;37.00;;;;;;475033;250;1938;-44
2023/01/15 03:53:48;;;;;;;;;;;21.50;37.00;;;;;;475231;250;2187;-44
2023/01/15 03:55:49;;;;;;;;;;;21.50;36.90;;;;;;475192;250;3128;-44
2023/01/15 03:57:51;;;;;;;;;;;21.60;36.80;;;;;;475097;251;1931;-44
2023/01/15 03:59:52;;;;;;;;;;;21.70;36.80;;;;;;475129;250;1692;-44
2023/01/15 04:01:53;;;;;;;;;;;21.70;36.60;;;;;;475188;250;1719;-44
2023/01/15 04:03:55;;;;;;;;;;;21.80;36.60;;;;;;475135;250;2082;-44
2023/01/15 04:05:56;;;;;;;;;;;21.80;36.50;;;;;;475142;250;2210;-44
2023/01/15 04:07:57;;;;;;;;;;;21.80;36.30;;;;;;475113;250;2191;-44
2023/01/15 04:09:59;;;;;;;;;;;21.90;36.30;;;;;;475106;250;2134;-44
2023/01/15 04:12:00;;;;;;;;;;;21.90;36.30;;;;;;475055;251;1790;-44
2023/01/15 04:14:01;;;;;;;;;;;22.00;36.20;;;;;;475006;251;2200;-44
2023/01/15 04:16:03;;;;;;;;;;;22.00;36.20;;;;;;475073;250;1889;-44
2023/01/15 04:18:04;;;;;;;;;;;22.00;36.20;;;;;;475093;250;2399;-43
2023/01/15 04:20:05;;;;;;;;;;;22.00;36.20;;;;;;475132;250;2130;-44
2023/01/15 04:22:07;;;;;;;;;;;22.00;36.30;;;;;;475061;251;1857;-44
2023/01/15 04:24:08;;;;;;;;;;;22.00;36.20;;;;;;475059;251;2090;-43
2023/01/15 04:26:09;;;;;;;;;;;22.00;36.20;;;;;;475298;250;1672;-44
2023/01/15 04:28:11;;;;;;;;;;;22.00;36.20;;;;;;475117;250;1711;-44
2023/01/15 04:30:12;;;;;;;;;;;22.00;36.10;;;;;;475027;247;2745;-44
2023/01/15 04:32:13;;;;;;;;;;;22.00;36.10;;;;;;475087;250;1875;-44
2023/01/15 04:34:15;;;;;;;;;;;22.20;35.90;;;;;;474926;251;2188;-44
2023/01/15 04:36:16;;;;;;;;;;;22.20;35.70;;;;;;475069;250;2199;-43
2023/01/15 04:38:17;;;;;;;;;;;22.20;35.70;;;;;;475097;250;1667;-43
2023/01/15 04:44:59;;;;;;;;;;;22.10;36.00;;;;;;475162;250;2113;-44
2023/01/15 04:47:00;;;;;;;;;;;22.00;36.00;;;;;;475085;250;1741;-44
2023/01/15 04:49:01;;;;;;;;;;;22.00;36.10;;;;;;475090;250;1853;-43
2023/01/15 04:51:03;;;;;;;;;;;22.00;36.10;;;;;;475050;251;2129;-44
2023/01/15 04:53:04;;;;;;;;;;;22.00;36.20;;;;;;475082;251;1950;-44
2023/01/15 04:55:06;;;;;;;;;;;22.00;36.20;;;;;;474988;250;2204;-43
2023/01/15 04:57:07;;;;;;;;;;;22.00;36.20;;;;;;475135;250;2457;-43
2023/01/15 04:59:08;;;;;;;;;;;21.90;36.20;;;;;;475060;251;2089;-43
2023/01/15 05:01:09;;;;;;;;;;;21.90;36.30;;;;;;475157;250;2192;-44
2023/01/15 05:03:11;;;;;;;;;;;21.90;36.20;;;;;;475152;250;1934;-43
2023/01/15 05:05:12;;;;;;;;;;;21.90;36.30;;;;;;475079;250;1918;-44
2023/01/15 05:07:13;;;;;;;;;;;21.90;36.30;;;;;;475135;250;3063;-44
2023/01/15 05:09:15;;;;;;;;;;;21.90;36.30;;;;;;475057;251;1688;-43
2023/01/15 05:11:16;;;;;;;;;;;21.90;36.30;;;;;;475070;251;1919;-44
2023/01/15 05:13:17;;;;;;;;;;;21.90;36.30;;;;;;475266;250;2291;-44
2023/01/15 05:15:19;;;;;;;;;;;21.90;36.30;;;;;;475300;250;2223;-43
2023/01/15 05:17:20;;;;;;;;;;;21.80;36.40;;;;;;475072;250;1694;-44
2023/01/15 05:19:21;;;;;;;;;;;21.80;36.40;;;;;;475020;251;2083;-43
2023/01/15 05:21:23;;;;;;;;;;;21.80;36.40;;;;;;475045;250;1902;-43
2023/01/15 05:23:24;;;;;;;;;;;21.80;36.40;;;;;;475085;251;1735;-43
2023/01/15 05:25:25;;;;;;;;;;;21.80;36.40;;;;;;475076;250;1390;-44
2023/01/15 05:27:27;;;;;;;;;;;21.80;36.40;;;;;;475132;250;1814;-44
2023/01/15 05:29:28;;;;;;;;;;;21.80;36.40;;;;;;475210;250;1738;-44
2023/01/15 05:31:29;;;;;;;;;;;21.80;36.40;;;;;;475008;251;2165;-44
2023/01/15 05:33:31;;;;;;;;;;;21.80;36.50;;;;;;475073;251;2212;-44
2023/01/15 05:35:32;;;;;;;;;;;21.70;36.50;;;;;;475029;251;1809;-44
2023/01/15 05:37:33;;;;;;;;;;;21.70;36.60;;;;;;475108;250;1872;-44
2023/01/15 05:39:35;;;;;;;;;;;21.70;36.70;;;;;;475191;250;1576;-43
2023/01/15 05:41:48;;;;;;;;;;;21.70;36.70;;;;;;475164;250;1822;-44
2023/01/15 05:43:49;;;;;;;;;;;21.70;36.70;;;;;;475136;250;1949;-44
2023/01/15 05:45:51;;;;;;;;;;;21.70;36.60;;;;;;475036;250;2254;-44
2023/01/15 05:47:52;;;;;;;;;;;21.80;36.50;;;;;;475100;250;2090;-44
2023/01/15 05:49:53;;;;;;;;;;;21.80;36.50;;;;;;475054;251;1730;-44
2023/01/15 05:51:55;;;;;;;;;;;21.80;36.40;;;;;;475145;250;1844;-44
2023/01/15 05:53:56;;;;;;;;;;;21.90;36.40;;;;;;475099;250;2217;-44
2023/01/15 05:55:57;;;;;;;;;;;22.00;36.10;;;;;;475087;251;2095;-44
2023/01/15 05:57:59;;;;;;;;;;;22.10;35.90;;;;;;475112;250;1840;-44
2023/01/15 06:00:00;;;;;;;;;;;22.30;35.70;;;;;;475070;250;2086;-44
2023/01/15 06:02:01;;;;;;;;;;;22.30;35.60;;;;;;475000;251;2337;-43
2023/01/15 06:04:03;;;;;;;;;;;22.30;35.60;;;;;;475080;250;1761;-44
2023/01/15 06:06:04;;;;;;;;;;;22.20;35.70;;;;;;475025;250;2226;-44
2023/01/15 06:08:05;;;;;;;;;;;22.20;35.80;;;;;;475084;251;1958;-44
2023/01/15 06:10:07;;;;;;;;;;;22.20;35.80;;;;;;475067;251;2170;-44
2023/01/15 06:12:08;;;;;;;;;;;22.10;35.80;;;;;;475066;250;1718;-44
2023/01/15 06:14:09;;;;;;;;;;;22.10;35.90;;;;;;475045;251;2189;-44
2023/01/15 06:16:11;;;;;;;;;;;22.10;36.00;;;;;;475098;251;1746;-44
2023/01/15 06:18:12;;;;;;;;;;;22.10;36.00;;;;;;475059;251;2114;-44
2023/01/15 06:20:13;;;;;;;;;;;22.10;36.00;;;;;;475012;251;2221;-44
2023/01/15 06:22:15;;;;;;;;;;;22.10;36.00;;;;;;475030;251;1822;-44
2023/01/15 06:24:16;;;;;;;;;;;22.10;36.00;;;;;;475199;250;1695;-43
2023/01/15 06:26:17;;;;;;;;;;;22.00;35.90;;;;;;475188;250;2633;-44
2023/01/15 06:28:19;;;;;;;;;;;22.00;36.00;;;;;;475084;251;1814;-44
2023/01/15 06:30:20;;;;;;;;;;;22.00;36.10;;;;;;475103;250;1852;-44
2023/01/15 06:32:21;;;;;;;;;;;22.00;36.10;;;;;;475067;250;1588;-43
2023/01/15 06:34:23;;;;;;;;;;;22.00;36.20;;;;;;475067;251;2188;-44
2023/01/15 06:36:24;;;;;;;;;;;22.00;36.20;;;;;;475130;250;2378;-44
2023/01/15 06:38:25;;;;;;;;;;;21.90;36.20;;;;;;475205;250;2169;-44
2023/01/15 06:40:28;;;;;;;;;;;21.90;36.20;;;;;;475251;250;1739;-43
2023/01/15 06:47:21;;;;;;;;;;;21.80;36.40;;;;;;475101;250;2350;-44
2023/01/15 06:49:22;;;;;;;;;;;21.80;36.40;;;;;;475256;250;2003;-44
2023/01/15 06:51:24;;;;;;;;;;;21.70;36.50;;;;;;475064;250;2352;-44
2023/01/15 06:53:25;;;;;;;;;;;21.70;36.50;;;;;;475243;250;2106;-43
2023/01/15 06:55:26;;;;;;;;;;;21.70;36.50;;;;;;475048;251;2204;-43
2023/01/15 06:57:28;;;;;;;;;;;21.70;36.60;;;;;;475083;251;2870;-44
2023/01/15 06:59:29;;;;;;;;;;;21.60;36.60;;;;;;475216;250;2019;-44
2023/01/15 07:01:30;;;;;;;;;;;21.60;36.70;;;;;;475040;251;2025;-44
2023/01/15 07:03:32;;;;;;;;;;;21.60;36.70;;;;;;475038;251;2069;-44
2023/01/15 07:05:34;;;;;;;;;;;21.60;36.80;;;;;;475205;250;1662;-44
2023/01/15 07:07:35;;;;;;;;;;;21.60;36.80;;;;;;475054;251;1726;-44
2023/01/15 07:09:36;;;;;;;;;;;21.60;36.80;;;;;;475152;250;1735;-44
2023/01/15 07:11:48;;;;;;;;;;;21.70;36.70;;;;;;475134;250;1948;-44
2023/01/15 07:13:40;;;;;;;;;;;21.80;36.30;;;;;;474440;247;2861;-44
2023/01/15 07:15:41;;;;;;;;;;;22.00;36.10;;;;;;475164;250;2204;-44
2023/01/15 07:17:42;;;;;;;;;;;22.10;35.80;;;;;;475032;251;2136;-44
2023/01/15 07:19:44;;;;;;;;;;;22.30;35.60;;;;;;475153;250;1852;-44
2023/01/15 07:21:45;;;;;;;;;;;22.30;35.40;;;;;;474989;251;2208;-43
2023/01/15 07:23:46;;;;;;;;;;;22.40;35.50;;;;;;475159;250;1750;-43
2023/01/15 07:25:48;;;;;;;;;;;22.30;35.50;;;;;;475056;251;2194;-43
2023/01/15 07:27:49;;;;;;;;;;;22.10;35.70;;;;;;475056;251;1738;-44
2023/01/15 07:29:51;;;;;;;;;;;22.00;35.90;;;;;;475144;250;1875;-44
2023/01/15 07:31:52;;;;;;;;;;;21.90;36.10;;;;;;475103;250;2162;-44
2023/01/15 07:33:53;;;;;;;;;;;21.90;36.30;;;;;;475119;250;2514;-44
2023/01/15 07:35:55;;;;;;;;;;;21.80;36.30;;;;;;475091;246;2239;-43
2023/01/15 07:37:56;;;;;;;;;;;21.80;36.40;;;;;;475035;251;2150;-44
2023/01/15 07:39:57;;;;;;;;;;;21.80;36.40;;;;;;475118;250;1645;-44
2023/01/15 07:51:25;;;;;;;;;;;21.70;36.40;;;;;;450569;261;2302;-43
2023/01/15 07:53:27;;;;;;;;;;;21.80;36.40;;;;;;452175;260;2074;-43
2023/01/15 07:55:28;;;;;;;;;;;21.80;36.40;;;;;;450491;261;2210;-44
2023/01/15 07:57:29;;;;;;;;;;;21.80;36.40;;;;;;452077;263;1769;-44
2023/01/15 07:59:31;;;;;;;;;;;21.70;36.40;;;;;;450587;261;1931;-44
2023/01/15 08:01:32;;;;;;;;;;;21.70;36.40;;;;;;452133;260;1747;-44
2023/01/15 08:03:33;;;;;;;;;;;21.80;36.40;;;;;;450403;261;2225;-44
2023/01/15 08:05:35;;;;;;;;;;;21.80;36.40;;;;;;452160;263;2526;-44
2023/01/15 08:07:36;;;;;;;;;;;21.80;36.40;;;;;;450529;263;1794;-44
2023/01/15 08:09:37;;;;;;;;;;;21.70;36.40;;;;;;452080;263;1777;-43
2023/01/15 08:16:17;;;;;;;;;;;21.70;36.30;;;;;;450397;264;2163;-44
2023/01/15 08:18:18;;;;;;;;;;;21.80;36.30;;;;;;452145;263;2042;-44
2023/01/15 08:20:19;;;;;;;;;;;21.90;36.20;;;;;;450464;263;1955;-44
2023/01/15 08:22:21;;;;;;;;;;;22.00;35.90;;;;;;473397;250;1742;-44
2023/01/15 08:24:22;;;;;;;;;;;22.20;35.70;;;;;;476048;250;1887;-44
2023/01/15 08:26:23;;;;;;;;;;;22.30;35.50;;;;;;476044;250;1731;-44
2023/01/15 08:28:25;;;;;;;;;;;22.30;35.40;;;;;;475995;250;1669;-44
2023/01/15 08:30:26;;;;;;;;;;;22.30;35.40;;;;;;476175;248;1680;-44
2023/01/15 08:32:27;;;;;;;;;;;22.20;35.50;;;;;;476022;250;2686;-44
2023/01/15 08:34:29;;;;;;;;;;;22.10;35.70;;;;;;476113;250;2219;-43
2023/01/15 08:36:30;;;;;;;;;;;22.00;35.90;;;;;;475998;250;1683;-44
2023/01/15 08:38:31;;;;;;;;;;;21.90;36.00;;;;;;476039;248;2206;-44
2023/01/15 08:40:34;;;;;;;;;;;21.90;36.10;;;;;;476019;250;1720;-43
2023/01/15 08:42:34;;;;;;;;;;;21.80;36.20;;;;;;475885;250;1966;-44
2023/01/15 08:44:35;;;;;;;;;;;21.80;36.20;;;;;;476014;250;1715;-44
2023/01/15 08:46:37;;;;;;;;;;;21.80;36.20;;;;;;476120;250;1713;-44
2023/01/15 08:48:38;;;;;;;;;;;21.80;36.20;;;;;;475989;248;1771;-44
2023/01/15 08:50:39;;;;;;;;;;;21.80;36.30;;;;;;476095;250;2418;-43
2023/01/15 08:52:41;;;;;;;;;;;21.80;36.30;;;;;;476032;250;1921;-44
2023/01/15 08:54:43;;;;;;;;;;;21.80;36.30;;;;;;476098;248;2168;-43
2023/01/15 08:56:44;;;;;;;;;;;21.80;36.30;;;;;;476019;250;2131;-44
2023/01/15 08:58:47;;;;;;;;;;;21.80;36.30;;;;;;476096;250;1807;-43
2023/01/15 09:00:47;;;;;;;;;;;21.80;36.30;;;;;;475969;250;2187;-44
2023/01/15 09:02:49;;;;;;;;;;;21.80;36.30;;;;;;476063;250;1914;-44
2023/01/15 09:04:51;;;;;;;;;;;21.80;36.30;;;;;;476088;250;1914;-43
2023/01/15 09:06:51;;;;;;;;;;;21.70;36.20;;;;;;475954;250;1882;-43
2023/01/15 09:08:52;;;;;;;;;;;21.80;36.30;;;;;;476000;250;2300;-44
2023/01/15 09:10:54;;;;;;;;;;;21.80;36.30;;;;;;476063;250;1858;-44
2023/01/15 09:12:55;;;;;;;;;;;21.80;36.30;;;;;;476012;250;2210;-43
2023/01/15 09:14:56;;;;;;;;;;;21.80;36.30;;;;;;476030;250;2296;-44
2023/01/15 09:16:58;;;;;;;;;;;21.80;36.30;;;;;;476097;250;2402;-43
2023/01/15 09:18:59;;;;;;;;;;;21.80;36.30;;;;;;476094;250;2168;-44
2023/01/15 09:21:00;;;;;;;;;;;21.80;36.30;;;;;;476029;250;2054;-43
2023/01/15 09:23:02;;;;;;;;;;;21.80;36.30;;;;;;476033;250;1757;-44
2023/01/15 09:25:03;;;;;;;;;;;21.80;36.30;;;;;;476041;250;2263;-44
2023/01/15 09:27:04;;;;;;;;;;;21.80;36.30;;;;;;476031;250;1945;-43
2023/01/15 09:29:06;;;;;;;;;;;21.80;36.30;;;;;;476032;248;2187;-44
2023/01/15 09:31:07;;;;;;;;;;;21.80;36.30;;;;;;476053;250;1720;-44
2023/01/15 09:33:10;;;;;;;;;;;21.70;36.20;;;;;;475997;250;2557;-44
2023/01/15 09:35:10;;;;;;;;;;;21.70;36.20;;;;;;476019;250;2601;-43
2023/01/15 09:37:11;;;;;;;;;;;21.70;36.30;;;;;;475865;250;1787;-44
2023/01/15 09:39:13;;;;;;;;;;;21.70;36.30;;;;;;476090;250;1879;-44
2023/01/15 09:43:35;;;;;;;;;;;21.90;36.20;;;;;;475923;250;2025;-44
2023/01/15 09:45:36;;;;;;;;;;;22.10;35.80;;;;;;476172;247;1669;-44
2023/01/15 09:47:37;;;;;;;;;;;22.20;35.60;;;;;;476026;250;1688;-44
2023/01/15 09:49:38;;;;;;;;;;;22.30;35.40;;;;;;476097;250;1798;-44
2023/01/15 09:51:40;;;;;;;;;;;22.40;35.30;;;;;;476058;250;2442;-44
2023/01/15 09:53:42;;;;;;;;;;;22.30;35.30;;;;;;476013;246;1720;-43
2023/01/15 09:55:43;;;;;;;;;;;22.20;35.40;;;;;;476132;250;2200;-44
2023/01/15 09:57:45;;;;;;;;;;;22.10;35.60;;;;;;476054;250;2004;-44
2023/01/15 09:59:46;;;;;;;;;;;22.00;35.80;;;;;;476075;250;2237;-44
2023/01/15 10:01:48;;;;;;;;;;;21.90;36.00;;;;;;476099;250;2095;-43
2023/01/15 10:03:49;;;;;;;;;;;21.90;36.10;;;;;;475979;250;2505;-44
2023/01/15 10:05:52;;;;;;;;;;;21.80;36.20;;;;;;476051;248;2039;-43
2023/01/15 10:07:52;;;;;;;;;;;21.80;36.30;;;;;;475905;250;2470;-43
2023/01/15 10:09:53;;;;;;;;;;;21.70;36.40;;;;;;476067;250;1917;-44
2023/01/15 10:14:14;;;;;;;;;;;21.60;36.50;;;;;;476050;248;1843;-44
2023/01/15 10:16:15;;;;;;;;;;;21.60;36.50;;;;;;476007;248;2303;-44
2023/01/15 10:18:16;;;;;;;;;;;21.60;36.60;;;;;;476217;250;1675;-43
2023/01/15 10:20:18;;;;;;;;;;;21.60;36.60;;;;;;476102;250;1673;-44
2023/01/15 10:22:19;;;;;;;;;;;21.60;36.60;;;;;;476197;250;2033;-43
2023/01/15 10:24:20;;;;;;;;;;;21.60;36.60;;;;;;476011;250;2092;-44
2023/01/15 10:26:22;;;;;;;;;;;21.60;36.60;;;;;;476047;250;1815;-43
2023/01/15 10:28:23;;;;;;;;;;;21.60;36.60;;;;;;476097;250;2116;-44
2023/01/15 10:30:24;;;;;;;;;;;21.60;36.60;;;;;;476098;250;2231;-43
2023/01/15 10:32:28;;;;;;;;;;;21.60;36.60;;;;;;475995;250;2389;-43
2023/01/15 10:34:27;;;;;;;;;;;21.60;36.60;;;;;;476004;248;1854;-43
2023/01/15 10:36:28;;;;;;;;;;;21.60;36.60;;;;;;476147;250;2180;-44
2023/01/15 10:38:30;;;;;;;;;;;21.60;36.60;;;;;;476057;250;1901;-43
2023/01/15 10:40:31;;;;;;;;;;;21.60;36.60;;;;;;476120;250;1705;-44
2023/01/15 10:42:32;;;;;;;;;;;21.60;36.60;;;;;;476015;250;1959;-44
2023/01/15 10:44:34;;;;;;;;;;;21.60;36.50;;;;;;476070;250;2511;-44
2023/01/15 10:46:37;;;;;;;;;;;21.60;36.60;;;;;;476165;247;2420;-43
2023/01/15 10:48:36;;;;;;;;;;;21.60;36.60;;;;;;475876;248;2482;-44
2023/01/15 10:50:38;;;;;;;;;;;21.60;36.60;;;;;;476120;250;1712;-44
2023/01/15 10:52:39;;;;;;;;;;;21.60;36.70;;;;;;476024;250;2215;-44
2023/01/15 10:54:40;;;;;;;;;;;21.60;36.70;;;;;;476019;250;1683;-43
2023/01/15 10:56:41;;;;;;;;;;;21.50;36.80;;;;;;476036;250;2149;-44
2023/01/15 10:58:44;;;;;;;;;;;21.50;36.80;;;;;;476032;250;1839;-44
2023/01/15 11:00:44;;;;;;;;;;;21.50;36.80;;;;;;476053;250;2440;-44
2023/01/15 11:02:46;;;;;;;;;;;21.50;36.80;;;;;;475967;248;1712;-43
2023/01/15 11:04:47;;;;;;;;;;;21.40;36.80;;;;;;476102;250;1863;-43
2023/01/15 11:06:48;;;;;;;;;;;21.40;36.80;;;;;;476106;248;1784;-43
2023/01/15 11:08:49;;;;;;;;;;;21.40;36.90;;;;;;476090;250;1645;-44
2023/01/15 11:10:51;;;;;;;;;;;21.40;37.00;;;;;;476111;250;1835;-44
2023/01/15 11:19:50;;;;;;;;;;;21.40;37.00;;;;;;476006;248;1895;-43
2023/01/15 11:21:51;;;;;;;;;;;21.40;37.10;;;;;;476100;250;1875;-44
2023/01/15 11:23:52;;;;;;;;;;;21.40;37.10;;;;;;476061;250;1775;-44
2023/01/15 11:25:53;;;;;;;;;;;21.30;37.00;;;;;;475986;250;2405;-44
2023/01/15 11:27:55;;;;;;;;;;;21.30;37.00;;;;;;476059;250;2427;-44
2023/01/15 11:29:56;;;;;;;;;;;21.30;37.00;;;;;;476079;250;2139;-44
2023/01/15 11:31:57;;;;;;;;;;;21.30;37.10;;;;;;476089;250;1745;-44
2023/01/15 11:33:59;;;;;;;;;;;21.40;37.10;;;;;;476060;250;2002;-44
2023/01/15 11:36:00;;;;;;;;;;;21.30;37.10;;;;;;475994;250;2277;-44
2023/01/15 11:38:01;;;;;;;;;;;21.40;37.10;;;;;;476018;250;1946;-44
2023/01/15 11:40:06;;;;;;;;;;;21.40;37.10;;;;;;475999;250;2197;-43
2023/01/15 11:51:22;;;;;;;;;;;21.40;36.80;;;;;;476034;250;1856;-44
2023/01/15 11:53:23;;;;;;;;;;;21.50;36.90;;;;;;476062;250;2922;-44
2023/01/15 11:55:25;;;;;;;;;;;21.50;36.80;;;;;;476002;248;1754;-44
2023/01/15 11:57:26;;;;;;;;;;;21.50;36.80;;;;;;476019;250;2191;-44
2023/01/15 11:59:28;;;;;;;;;;;21.40;36.90;;;;;;476160;250;1617;-44
2023/01/15 12:01:29;;;;;;;;;;;21.40;36.90;;;;;;476030;250;2302;-44
2023/01/15 12:03:30;;;;;;;;;;;21.40;37.00;;;;;;475999;250;2380;-44
2023/01/15 12:05:32;;;;;;;;;;;21.30;37.00;;;;;;476013;250;1822;-44
2023/01/15 12:07:33;;;;;;;;;;;21.30;37.00;;;;;;476063;250;1937;-44
2023/01/15 12:09:34;;;;;;;;;;;21.30;37.10;;;;;;475905;250;2097;-44
2023/01/15 12:11:36;;;;;;;;;;;21.30;37.10;;;;;;476126;250;2170;-44
2023/01/15 12:13:37;;;;;;;;;;;21.30;37.10;;;;;;476005;250;1951;-44
2023/01/15 12:15:39;;;;;;;;;;;21.30;37.10;;;;;;475989;250;1712;-44
2023/01/15 12:17:40;;;;;;;;;;;21.30;37.20;;;;;;476004;250;2180;-44
2023/01/15 12:19:41;;;;;;;;;;;21.30;37.20;;;;;;476039;250;1859;-44
2023/01/15 12:21:43;;;;;;;;;;;21.30;37.20;;;;;;476129;250;1718;-43
2023/01/15 12:23:44;;;;;;;;;;;21.30;37.20;;;;;;476114;250;2147;-44
2023/01/15 12:25:45;;;;;;;;;;;21.20;37.20;;;;;;476002;248;2141;-44
2023/01/15 12:27:48;;;;;;;;;;;21.20;37.30;;;;;;476069;250;2146;-43
2023/01/15 12:29:48;;;;;;;;;;;21.20;37.30;;;;;;476064;248;2499;-43
2023/01/15 12:31:50;;;;;;;;;;;21.20;37.30;;;;;;476155;250;2029;-44
2023/01/15 12:33:51;;;;;;;;;;;21.20;37.40;;;;;;476139;250;2346;-43
2023/01/15 12:35:55;;;;;;;;;;;21.20;37.40;;;;;;476075;250;2431;-44
2023/01/15 12:37:54;;;;;;;;;;;21.10;37.40;;;;;;475899;250;2203;-44
2023/01/15 12:39:55;;;;;;;;;;;21.10;37.50;;;;;;476035;250;1676;-44
2023/01/15 12:46:35;;;;;;;;;;;21.10;37.50;;;;;;475788;250;2220;-44
2023/01/15 12:48:36;;;;;;;;;;;21.10;37.40;;;;;;476017;250;1783;-44
2023/01/15 12:50:38;;;;;;;;;;;21.10;37.40;;;;;;476033;250;1773;-43